Terminal Aerodrome Forecast
Issued by NWS

Home | Current Version | Previous Version | Text Only | Print | Product List | Glossary On
Versions: 1 2 3 4 5 6 7 8 9 10 11 12 13 14 15 16 17 18 19 20 21 22 23 24 25 26 27 28 29 30 31 32 33 34 35 36 37 38 39 40 41 42 43 44
000
FTUS41 KBOX 271120
TAFACK
TAF
KACK 271120Z 2712/2812 11014KT P6SM VCSH OVC015
     FM271600 14014KT 1SM BR VCSH OVC008
     FM271800 15013KT 1SM -RA BR OVC003
     FM272000 19011KT 1 1/2SM BR VCSH OVC003
     FM280500 30005KT 1SM BR BKN015=

USA.gov is the U.S. government's official web portal to all federal, state and local government web resources and services.